createdAt,value
2019-01-16T00:00:35.443Z,100223.75
2019-01-16T00:03:08.407Z,100207.77
2019-01-16T00:05:41.521Z,100219.62
2019-01-16T00:08:28.297Z,100215.62
2019-01-16T00:11:16.195Z,100215.12
2019-01-16T00:14:01.410Z,100205.40
2019-01-16T00:16:34.671Z,100201.03
2019-01-16T00:19:13.785Z,100204.47
2019-01-16T00:21:53.067Z,100204.87
2019-01-16T00:24:41.339Z,100207.43
2019-01-16T00:27:20.210Z,100209.16
2019-01-16T00:29:53.280Z,100210.89
2019-01-16T00:32:35.706Z,100215.42
2019-01-16T00:35:07.767Z,100211.33
2019-01-16T00:37:52.874Z,100214.69
2019-01-16T00:40:39.313Z,100213.76
2019-01-16T00:43:15.163Z,100226.58
2019-01-16T00:45:47.962Z,100220.31
2019-01-16T00:48:24.627Z,100216.72
2019-01-16T00:51:07.917Z,100218.45
2019-01-16T00:53:46.722Z,100232.20
2019-01-16T00:56:22.309Z,100222.34
2019-01-16T00:58:55.375Z,100232.61
2019-01-16T01:01:42.119Z,100231.57
2019-01-16T01:04:28.595Z,100237.37
2019-01-16T01:07:04.860Z,100245.27
2019-01-16T01:09:49.876Z,100243.03
2019-01-16T01:12:22.708Z,100238.60
2019-01-16T01:14:56.544Z,100251.47
2019-01-16T01:17:29.799Z,100256.27
2019-01-16T01:20:16.281Z,100262.52
2019-01-16T01:22:46.388Z,100255.39
2019-01-16T01:25:19.450Z,100256.36
2019-01-16T01:27:52.463Z,100257.27
2019-01-16T01:30:38.885Z,100275.75
2019-01-16T01:33:08.993Z,100265.59
2019-01-16T01:35:39.122Z,100260.72
2019-01-16T01:38:25.099Z,100272.25
2019-01-16T01:40:55.190Z,100270.42
2019-01-16T01:43:25.290Z,100269.55
2019-01-16T01:46:04.207Z,100279.75
2019-01-16T01:48:39.933Z,100260.98
2019-01-16T01:51:12.129Z,100288.05
2019-01-16T01:53:44.944Z,100280.52
2019-01-16T01:56:31.447Z,100282.75
2019-01-16T01:59:10.447Z,100284.91
2019-01-16T02:01:43.486Z,100291.48
2019-01-16T02:04:25.635Z,100294.44
2019-01-16T02:06:55.761Z,100292.75
2019-01-16T02:09:42.056Z,100291.81
2019-01-16T02:12:17.679Z,100301.58
2019-01-16T02:15:04.139Z,100285.68
2019-01-16T02:17:40.359Z,100303.02
2019-01-16T02:20:29.130Z,100300.24
2019-01-16T02:23:14.366Z,100318.94
2019-01-16T02:26:00.878Z,100321.61
2019-01-16T02:28:39.885Z,100322.47
2019-01-16T02:31:12.897Z,100327.34
2019-01-16T02:33:58.171Z,100322.91
2019-01-16T02:36:28.270Z,100335.30
2019-01-16T02:39:10.440Z,100332.23
2019-01-16T02:41:52.755Z,100337.03
2019-01-16T02:44:22.852Z,100341.91
2019-01-16T02:47:09.213Z,100343.80
2019-01-16T02:49:42.001Z,100336.67
2019-01-16T02:52:14.554Z,100340.43
2019-01-16T02:54:44.658Z,100338.80
2019-01-16T02:57:33.208Z,100344.03
2019-01-16T03:00:06.439Z,100339.50
2019-01-16T03:02:39.357Z,100338.30
2019-01-16T03:05:09.449Z,100340.97
2019-01-16T03:07:39.578Z,100343.56
2019-01-16T03:10:13.356Z,100346.63
2019-01-16T03:12:58.681Z,100347.19
2019-01-16T03:15:28.780Z,100351.16
2019-01-16T03:17:58.893Z,100341.22
2019-01-16T03:20:44.099Z,100352.78
2019-01-16T03:23:16.885Z,100352.78
2019-01-16T03:26:05.173Z,100350.48
2019-01-16T03:28:35.294Z,100350.89
2019-01-16T03:31:21.781Z,100351.42
2019-01-16T03:34:04.033Z,100356.75
2019-01-16T03:36:36.761Z,100348.84
2019-01-16T03:39:18.588Z,100353.94
2019-01-16T03:41:57.606Z,100357.03
2019-01-16T03:44:30.291Z,100348.94
2019-01-16T03:47:18.707Z,100351.58
2019-01-16T03:49:51.573Z,100345.57
2019-01-16T03:52:21.694Z,100349.04
2019-01-16T03:54:54.372Z,100347.40
2019-01-16T03:57:30.016Z,100348.23
2019-01-16T04:00:08.979Z,100351.30
2019-01-16T04:02:51.332Z,100349.88
2019-01-16T04:05:21.479Z,100345.47
2019-01-16T04:07:51.569Z,100339.41
2019-01-16T04:10:28.019Z,100335.78
2019-01-16T04:13:07.463Z,100334.45
2019-01-16T04:15:37.583Z,100332.64
2019-01-16T04:18:10.331Z,100333.67
2019-01-16T04:20:45.919Z,100333.20
2019-01-16T04:23:21.518Z,100332.56
2019-01-16T04:25:51.648Z,100332.44
2019-01-16T04:28:30.717Z,100326.14
2019-01-16T04:31:00.844Z,100322.61
2019-01-16T04:33:33.924Z,100326.08
2019-01-16T04:36:20.108Z,100318.55
2019-01-16T04:38:50.215Z,100320.44
2019-01-16T04:41:23.111Z,100313.69
2019-01-16T04:43:55.922Z,100327.41
2019-01-16T04:46:28.491Z,100319.42
2019-01-16T04:48:58.600Z,100314.22
2019-01-16T04:51:28.725Z,100319.02
2019-01-16T04:54:10.702Z,100319.95
2019-01-16T04:56:59.007Z,100315.02
2019-01-16T04:59:29.115Z,100317.69
2019-01-16T05:02:15.549Z,100310.69
2019-01-16T05:04:48.792Z,100308.52
2019-01-16T05:07:21.579Z,100310.72
2019-01-16T05:10:00.859Z,100312.88
2019-01-16T05:12:33.444Z,100305.79
2019-01-16T05:15:06.338Z,100307.19
2019-01-16T05:17:36.480Z,100305.05
2019-01-16T05:20:18.830Z,100312.67
2019-01-16T05:23:01.069Z,100309.61
2019-01-16T05:25:49.480Z,100315.24
2019-01-16T05:28:22.544Z,100308.15
2019-01-16T05:31:11.021Z,100316.58
2019-01-16T05:33:41.113Z,100310.48
2019-01-16T05:36:26.621Z,100317.84
2019-01-16T05:39:02.485Z,100316.61
2019-01-16T05:41:35.577Z,100317.53
2019-01-16T05:44:15.217Z,100323.02
2019-01-16T05:46:48.057Z,100321.06
2019-01-16T05:49:18.238Z,100330.39
2019-01-16T05:51:51.102Z,100333.59
2019-01-16T05:54:29.976Z,100324.76
2019-01-16T05:57:09.001Z,100325.78
2019-01-16T05:59:41.550Z,100314.87
2019-01-16T06:02:17.384Z,100323.95
2019-01-16T06:04:59.747Z,100327.42
2019-01-16T06:07:46.021Z,100329.63
2019-01-16T06:10:24.653Z,100329.63
2019-01-16T06:12:54.782Z,100326.62
2019-01-16T06:15:41.372Z,100333.62
2019-01-16T06:18:11.492Z,100321.48
2019-01-16T06:20:44.275Z,100312.06
2019-01-16T06:23:30.825Z,100319.43
2019-01-16T06:26:03.473Z,100316.86
2019-01-16T06:28:39.737Z,100327.11
2019-01-16T06:31:15.675Z,100333.77
2019-01-16T06:33:55.012Z,100332.07
2019-01-16T06:36:41.721Z,100331.27
2019-01-16T06:39:14.790Z,100340.22
2019-01-16T06:41:50.901Z,100326.34
2019-01-16T06:44:21.030Z,100332.66
2019-01-16T06:46:51.129Z,100332.07
2019-01-16T06:49:21.252Z,100332.91
2019-01-16T06:51:51.353Z,100333.99
2019-01-16T06:54:21.474Z,100334.58
2019-01-16T06:57:03.506Z,100338.89
2019-01-16T06:59:36.046Z,100343.75
2019-01-16T07:02:09.374Z,100344.21
2019-01-16T07:04:39.498Z,100345.67
2019-01-16T07:07:09.601Z,100348.27
2019-01-16T07:09:56.159Z,100342.11
2019-01-16T07:12:42.873Z,100343.56
2019-01-16T07:15:30.392Z,100342.08
2019-01-16T07:18:03.185Z,100356.02
2019-01-16T07:20:49.227Z,100351.70
2019-01-16T07:23:31.395Z,100351.70
2019-01-16T07:26:07.491Z,100352.11
2019-01-16T07:28:43.339Z,100357.03
2019-01-16T07:31:22.270Z,100351.18
2019-01-16T07:33:58.371Z,100354.24
2019-01-16T07:36:44.680Z,100347.70
2019-01-16T07:39:31.225Z,100355.58
2019-01-16T07:42:19.449Z,100355.17
2019-01-16T07:44:52.544Z,100349.05
2019-01-16T07:47:34.925Z,100352.91
2019-01-16T07:50:17.220Z,100356.50
2019-01-16T07:53:00.763Z,100349.05
2019-01-16T07:55:36.570Z,100352.05
2019-01-16T07:58:21.448Z,100354.31
2019-01-16T08:00:54.293Z,100356.10
2019-01-16T08:03:24.389Z,100346.25
2019-01-16T08:05:59.952Z,100357.69
2019-01-16T08:08:30.065Z,100358.15
2019-01-16T08:11:16.716Z,100360.34
2019-01-16T08:13:52.550Z,100353.22
2019-01-16T08:16:38.779Z,100347.44
2019-01-16T08:19:14.869Z,100348.33
2019-01-16T08:21:44.990Z,100346.94
2019-01-16T08:24:27.402Z,100355.39
2019-01-16T08:26:57.528Z,100347.80
2019-01-16T08:29:27.637Z,100345.14
2019-01-16T08:31:57.758Z,100346.88
2019-01-16T08:34:27.863Z,100343.81
2019-01-16T08:36:57.988Z,100349.05
2019-01-16T08:39:40.134Z,100350.31
2019-01-16T08:42:19.189Z,100347.66
2019-01-16T08:44:52.492Z,100356.88
2019-01-16T08:47:22.609Z,100333.71
2019-01-16T08:50:07.992Z,100346.16
2019-01-16T08:52:38.125Z,100345.67
2019-01-16T08:55:08.778Z,100343.31
2019-01-16T08:57:50.879Z,100357.04
2019-01-16T09:00:32.724Z,100343.78
2019-01-16T09:03:05.770Z,100349.91
2019-01-16T09:05:44.895Z,100348.02
2019-01-16T09:08:21.005Z,100349.35
2019-01-16T09:10:51.103Z,100345.77
2019-01-16T09:13:21.252Z,100344.09
2019-01-16T09:15:51.351Z,100341.89
2019-01-16T09:18:27.166Z,100341.73
2019-01-16T09:20:57.257Z,100340.89
2019-01-16T09:23:33.207Z,100346.59
2019-01-16T09:26:06.103Z,100339.09
2019-01-16T09:28:52.283Z,100345.89
2019-01-16T09:31:22.374Z,100345.77
2019-01-16T09:34:08.405Z,100353.56
2019-01-16T09:36:54.806Z,100344.33
2019-01-16T09:39:30.610Z,100345.66
2019-01-16T09:42:03.649Z,100344.33
2019-01-16T09:44:36.462Z,100344.23
2019-01-16T09:47:12.147Z,100341.48
2019-01-16T09:49:42.269Z,100334.28
2019-01-16T09:52:12.374Z,100338.59
2019-01-16T09:54:51.556Z,100335.52
2019-01-16T09:57:30.635Z,100336.33
2019-01-16T10:00:16.064Z,100335.52
2019-01-16T10:02:48.569Z,100328.09
2019-01-16T10:05:18.689Z,100331.22
2019-01-16T10:07:48.785Z,100324.45
2019-01-16T10:10:36.962Z,100335.13
2019-01-16T10:13:12.860Z,100327.63
2019-01-16T10:15:45.583Z,100323.48
2019-01-16T10:18:15.648Z,100323.72
2019-01-16T10:21:01.957Z,100320.55
2019-01-16T10:23:50.522Z,100321.52
2019-01-16T10:26:21.582Z,100315.73
2019-01-16T10:28:57.239Z,100313.80
2019-01-16T10:31:29.747Z,100309.06
2019-01-16T10:34:05.591Z,100306.93
2019-01-16T10:36:48.066Z,100302.20
2019-01-16T10:39:34.651Z,100303.07
2019-01-16T10:42:20.946Z,100299.94
2019-01-16T10:44:51.067Z,100291.73
2019-01-16T10:47:21.169Z,100289.51
2019-01-16T10:52:38.323Z,100280.68
2019-01-16T10:55:08.683Z,100275.19
2019-01-16T10:57:53.775Z,100276.81
2019-01-16T11:00:23.896Z,100276.35
2019-01-16T11:02:59.678Z,100274.52
2019-01-16T11:05:32.628Z,100273.25
2019-01-16T11:08:11.489Z,100267.45
2019-01-16T11:10:57.477Z,100266.92
2019-01-16T11:13:45.578Z,100263.79
2019-01-16T11:16:24.344Z,100257.48
2019-01-16T11:18:57.216Z,100257.98
2019-01-16T11:21:30.368Z,100250.76
2019-01-16T11:24:02.899Z,100247.59
2019-01-16T11:26:44.876Z,100246.36
2019-01-16T11:29:30.309Z,100242.45
2019-01-16T11:32:16.781Z,100241.98
2019-01-16T11:34:46.875Z,100235.72
2019-01-16T11:37:33.255Z,100236.02
2019-01-16T11:40:06.436Z,100235.22
2019-01-16T11:42:39.070Z,100234.91
2019-01-16T11:45:24.619Z,100230.47
2019-01-16T11:48:11.130Z,100228.78
2019-01-16T11:50:43.992Z,100226.91
2019-01-16T11:53:26.390Z,100219.16
2019-01-16T11:56:11.663Z,100223.63
2019-01-16T11:58:41.762Z,100228.83
2019-01-16T12:01:14.521Z,100218.02
2019-01-16T12:04:02.970Z,100225.58
2019-01-16T12:06:38.820Z,100218.02
2019-01-16T12:09:27.178Z,100218.81
2019-01-16T12:12:09.262Z,100211.45
2019-01-16T12:14:42.078Z,100204.03
2019-01-16T12:17:29.755Z,100199.56
2019-01-16T12:20:02.410Z,100202.34
2019-01-16T12:22:32.524Z,100189.00
2019-01-16T12:25:08.732Z,100189.07
2019-01-16T12:27:53.895Z,100179.37
2019-01-16T12:30:30.675Z,100181.06
2019-01-16T12:33:06.221Z,100179.27
2019-01-16T12:35:39.259Z,100174.00
2019-01-16T12:38:21.051Z,100168.59
2019-01-16T12:40:57.135Z,100167.73
2019-01-16T12:43:33.384Z,100165.06
2019-01-16T12:46:09.154Z,100164.81
2019-01-16T12:48:44.950Z,100160.41
2019-01-16T12:54:32.948Z,100157.75
2019-01-16T12:57:03.049Z,100159.48
2019-01-16T12:59:33.203Z,100154.14
2019-01-16T13:02:12.638Z,100156.81
2019-01-16T13:04:54.699Z,100150.80
2019-01-16T13:07:40.019Z,100156.13
2019-01-16T13:10:15.245Z,100150.28
2019-01-16T13:12:45.338Z,100147.05
2019-01-16T13:15:21.339Z,100145.14
2019-01-16T13:17:53.994Z,100134.91
2019-01-16T13:20:24.120Z,100143.66
2019-01-16T13:22:59.923Z,100131.54
2019-01-16T13:25:48.253Z,100131.73
2019-01-16T13:28:18.365Z,100136.70
2019-01-16T13:30:50.995Z,100130.62
2019-01-16T13:33:39.259Z,100129.28
2019-01-16T13:36:25.305Z,100129.17
2019-01-16T13:38:55.421Z,100123.80
2019-01-16T13:41:31.480Z,100111.95
2019-01-16T13:44:04.503Z,100109.28
2019-01-16T13:46:40.679Z,100102.61
2019-01-16T13:49:13.348Z,100102.97
2019-01-16T13:51:52.264Z,100115.44
2019-01-16T13:54:28.639Z,100106.89
2019-01-16T13:57:15.073Z,100105.45
2019-01-16T14:02:53.083Z,100105.28
2019-01-16T14:05:29.115Z,100093.75
2019-01-16T14:08:15.619Z,100092.41
2019-01-16T14:10:45.744Z,100088.41
2019-01-16T14:13:24.589Z,100084.77
2019-01-16T14:16:06.444Z,100090.39
2019-01-16T14:18:42.444Z,100092.70
2019-01-16T14:21:21.656Z,100082.22
2019-01-16T14:23:58.031Z,100077.14
2019-01-16T14:26:43.504Z,100072.95
2019-01-16T14:29:25.645Z,100072.09
2019-01-16T14:32:01.780Z,100077.94
2019-01-16T14:34:34.465Z,100078.98
2019-01-16T14:37:20.989Z,100075.16
2019-01-16T14:39:54.028Z,100073.14
2019-01-16T14:42:36.211Z,100071.16
2019-01-16T14:45:24.533Z,100074.59
2019-01-16T14:47:57.278Z,100074.48
2019-01-16T14:50:43.716Z,100066.01
2019-01-16T14:53:13.815Z,100075.27
2019-01-16T14:55:43.933Z,100077.00
2019-01-16T14:58:14.029Z,100080.25
2019-01-16T15:00:46.965Z,100075.53
2019-01-16T15:03:35.438Z,100063.57
2019-01-16T15:06:08.800Z,100061.26
2019-01-16T15:08:51.142Z,100057.16
2019-01-16T15:11:30.030Z,100050.41
2019-01-16T15:14:02.850Z,100057.66
2019-01-16T15:16:41.738Z,100051.64
2019-01-16T15:19:28.218Z,100049.20
2019-01-16T15:22:14.753Z,100047.76
2019-01-16T15:24:51.078Z,100046.73
2019-01-16T15:27:26.850Z,100055.75
2019-01-16T15:29:59.635Z,100047.76
2019-01-16T15:35:20.781Z,100048.58
2019-01-16T15:37:59.712Z,100032.81
2019-01-16T15:40:29.904Z,100043.84
2019-01-16T15:43:00.017Z,100037.86
2019-01-16T15:45:32.815Z,100037.51
2019-01-16T15:48:15.102Z,100040.72
2019-01-16T15:50:47.877Z,100036.36
2019-01-16T15:53:20.483Z,100035.27
2019-01-16T15:56:02.461Z,100032.64
2019-01-16T15:58:32.598Z,100024.77
2019-01-16T16:01:02.726Z,100027.89
2019-01-16T16:03:41.673Z,100020.77
2019-01-16T16:06:11.785Z,100030.63
2019-01-16T16:08:53.765Z,100020.05
2019-01-16T16:11:23.863Z,100017.81
2019-01-16T16:14:05.764Z,100020.09
2019-01-16T16:16:52.413Z,100023.52
2019-01-16T16:19:34.371Z,100016.27
2019-01-16T16:22:19.495Z,100013.81
2019-01-16T16:24:58.640Z,100001.03
2019-01-16T16:27:34.497Z,100002.08
2019-01-16T16:30:07.666Z,99994.67
2019-01-16T16:32:40.227Z,100000.58
2019-01-16T16:35:19.092Z,99995.72
2019-01-16T16:38:07.196Z,99997.80
2019-01-16T16:40:39.982Z,99994.50
2019-01-16T16:43:19.325Z,99985.17
2019-01-16T16:45:55.237Z,99983.52
2019-01-16T16:48:34.198Z,99985.83
2019-01-16T16:51:13.019Z,99989.31
2019-01-16T16:53:45.800Z,99979.45
2019-01-16T16:56:32.056Z,99987.08
2019-01-16T16:59:18.415Z,99985.14
2019-01-16T17:01:50.915Z,99977.77
2019-01-16T17:04:27.005Z,99976.61
2019-01-16T17:06:59.814Z,99972.80
2019-01-16T17:09:35.780Z,99985.76
2019-01-16T17:12:08.356Z,99973.05
2019-01-16T17:14:41.111Z,99960.12
2019-01-16T17:17:23.201Z,99967.72
2019-01-16T17:20:09.790Z,99972.44
2019-01-16T17:22:42.336Z,99963.73
2019-01-16T17:25:24.283Z,99966.50
2019-01-16T17:28:00.383Z,99979.82
2019-01-16T17:30:46.769Z,99970.89
2019-01-16T17:33:31.703Z,99964.13
2019-01-16T17:36:13.731Z,99957.47
2019-01-16T17:38:52.918Z,99963.16
2019-01-16T17:41:25.835Z,99950.70
2019-01-16T17:43:55.925Z,99954.87
2019-01-16T17:46:26.045Z,99950.53
2019-01-16T17:48:56.681Z,99949.13
2019-01-16T17:51:43.024Z,99934.91
2019-01-16T17:54:29.102Z,99944.09
2019-01-16T17:56:59.216Z,99946.31
2019-01-16T17:59:35.460Z,99945.31
2019-01-16T18:02:05.728Z,99939.59
2019-01-16T18:04:35.920Z,99943.66
2019-01-16T18:07:18.575Z,99929.30
2019-01-16T18:10:04.835Z,99918.36
2019-01-16T18:12:40.738Z,99922.03
2019-01-16T18:15:14.825Z,99915.23
2019-01-16T18:17:56.520Z,99915.38
2019-01-16T18:20:32.084Z,99907.53
2019-01-16T18:23:17.219Z,99902.32
2019-01-16T18:25:56.174Z,99913.47
2019-01-16T18:28:26.267Z,99915.23
2019-01-16T18:31:12.329Z,99917.07
2019-01-16T18:36:50.620Z,99915.05
2019-01-16T18:39:29.813Z,99914.80
2019-01-16T18:42:08.419Z,99898.44
2019-01-16T18:44:53.495Z,99897.97
2019-01-16T18:47:23.613Z,99894.27
2019-01-16T18:49:53.709Z,99903.87
2019-01-16T18:52:26.804Z,99890.12
2019-01-16T18:55:02.726Z,99894.98
2019-01-16T18:57:35.926Z,99890.70
2019-01-16T19:00:11.987Z,99892.89
2019-01-16T19:02:58.252Z,99890.33
2019-01-16T19:05:37.114Z,99883.78
2019-01-16T19:08:23.471Z,99887.49
2019-01-16T19:10:53.574Z,99876.47
2019-01-16T19:13:39.923Z,99867.62
2019-01-16T19:16:15.885Z,99862.48
2019-01-16T19:19:02.224Z,99874.06
2019-01-16T19:21:35.313Z,99866.77
2019-01-16T19:24:21.772Z,99865.81
2019-01-16T19:26:54.805Z,99858.87
2019-01-16T19:29:24.888Z,99863.14
2019-01-16T19:32:04.193Z,99862.97
2019-01-16T19:34:37.044Z,99847.83
2019-01-16T19:37:10.881Z,99845.74
2019-01-16T19:39:41.034Z,99838.63
2019-01-16T19:42:19.774Z,99831.40
2019-01-16T19:44:52.545Z,99837.94
2019-01-16T19:47:28.769Z,99831.58
2019-01-16T19:49:58.866Z,99840.42
2019-01-16T19:52:29.016Z,99832.91
2019-01-16T19:55:01.871Z,99839.13
2019-01-16T19:57:47.350Z,99834.71
2019-01-16T20:00:22.390Z,99835.86
2019-01-16T20:03:10.832Z,99830.36
2019-01-16T20:05:46.427Z,99831.47
2019-01-16T20:08:23.413Z,99815.27
2019-01-16T20:10:59.698Z,99815.08
2019-01-16T20:13:29.814Z,99810.30
2019-01-16T20:16:02.629Z,99814.69
2019-01-16T20:18:44.366Z,99801.63
2019-01-16T20:21:29.752Z,99786.58
2019-01-16T20:24:05.826Z,99788.48
2019-01-16T20:26:42.029Z,99784.06
2019-01-16T20:29:30.737Z,99777.91
2019-01-16T20:32:00.905Z,99775.33
2019-01-16T20:34:42.680Z,99769.94
2019-01-16T20:37:12.768Z,99767.42
2019-01-16T20:39:45.594Z,99776.84
2019-01-16T20:42:15.677Z,99782.41
2019-01-16T20:44:45.797Z,99772.34
2019-01-16T20:47:21.657Z,99774.18
2019-01-16T20:49:57.474Z,99764.37
2019-01-16T20:52:36.435Z,99759.91
2019-01-16T20:55:13.198Z,99772.34
2019-01-16T20:57:43.291Z,99783.59
2019-01-16T21:00:32.959Z,99777.95
2019-01-16T21:03:19.754Z,99772.92
2019-01-16T21:05:58.845Z,99753.02
2019-01-16T21:08:45.569Z,99753.27
2019-01-16T21:11:33.772Z,99761.53
2019-01-16T21:14:09.668Z,99759.16
2019-01-16T21:16:55.838Z,99752.52
2019-01-16T21:19:28.902Z,99729.08
2019-01-16T21:22:02.072Z,99743.20
2019-01-16T21:24:34.716Z,99738.86
2019-01-16T21:27:07.429Z,99733.50
2019-01-16T21:29:46.848Z,99722.00
2019-01-16T21:32:19.393Z,99728.94
2019-01-16T21:34:52.474Z,99711.70
2019-01-16T21:37:38.704Z,99707.78
2019-01-16T21:40:16.978Z,99718.48
2019-01-16T21:42:47.225Z,99709.29
2019-01-16T21:45:17.316Z,99697.03
2019-01-16T21:47:53.457Z,99706.69
2019-01-16T21:50:26.087Z,99708.31
2019-01-16T21:53:01.807Z,99703.84
2019-01-16T21:55:37.375Z,99694.72
2019-01-16T21:58:25.320Z,99694.76
2019-01-16T22:01:11.634Z,99680.14
2019-01-16T22:03:41.745Z,99674.73
2019-01-16T22:06:27.904Z,99675.94
2019-01-16T22:09:03.684Z,99675.98
2019-01-16T22:11:50.319Z,99676.15
2019-01-16T22:14:20.434Z,99659.81
2019-01-16T22:19:55.785Z,99653.57
2019-01-16T22:22:25.879Z,99661.48
2019-01-16T22:25:01.764Z,99645.30
2019-01-16T22:27:31.925Z,99640.88
2019-01-16T22:30:05.180Z,99640.13
2019-01-16T22:32:38.304Z,99653.40
2019-01-16T22:35:27.225Z,99655.96
2019-01-16T22:38:13.676Z,99641.66
2019-01-16T22:40:55.764Z,99632.53
2019-01-16T22:43:37.716Z,99638.05
2019-01-16T22:46:07.814Z,99629.65
2019-01-16T22:48:43.843Z,99630.22
2019-01-16T22:51:30.550Z,99627.13
2019-01-16T22:54:03.489Z,99610.98
2019-01-16T22:56:33.600Z,99603.19
2019-01-16T22:59:06.156Z,99601.05
2019-01-16T23:01:44.774Z,99594.02
2019-01-16T23:04:17.362Z,99582.61
2019-01-16T23:06:47.473Z,99582.13
2019-01-16T23:09:20.337Z,99579.04
2019-01-16T23:12:05.461Z,99569.42
2019-01-16T23:14:35.589Z,99578.88
2019-01-16T23:17:05.853Z,99571.31
2019-01-16T23:19:48.337Z,99549.89
2019-01-16T23:22:27.593Z,99552.37
2019-01-16T23:25:06.618Z,99557.36
2019-01-16T23:27:36.704Z,99549.20
2019-01-16T23:30:15.722Z,99540.38
2019-01-16T23:33:02.361Z,99542.97
2019-01-16T23:35:47.711Z,99534.52
2019-01-16T23:38:34.536Z,99533.45
2019-01-16T23:41:07.840Z,99528.32
2019-01-16T23:43:47.043Z,99524.50
2019-01-16T23:46:29.274Z,99527.13
2019-01-16T23:49:04.980Z,99523.52
2019-01-16T23:51:53.399Z,99516.42
2019-01-16T23:54:32.824Z,99516.88
2019-01-16T23:57:08.879Z,99505.41
2019-01-16T23:59:55.201Z,99499.05
